Time;durP1;ratioP1;P1;durP2;ratioP2;P2;SDS_P1;SDS_P2;PMS_P1;PMS_P2;Temp;Humidity;BMP_temperature;BMP_pressure;BME280_temperature;BME280_humidity;BME280_pressure;Samples;Min_cycle;Max_cycle;Signal;HPM_P1;HPM_P2
2021/06/06 00:01:12;;;;;;;3.97;3.65;;;;;;;;;;5095212;28;20489;-75
2021/06/06 00:03:40;;;;;;;3.70;3.42;;;;;;;;;;5095190;28;20047;-71
2021/06/06 00:06:07;;;;;;;4.40;3.90;;;;;;;;;;5095074;28;20082;-71
2021/06/06 00:08:33;;;;;;;4.45;4.07;;;;;;;;;;5094875;28;20095;-71
2021/06/06 00:11:01;;;;;;;4.82;4.43;;;;;;;;;;5095011;28;20582;-71
2021/06/06 00:13:26;;;;;;;4.80;4.32;;;;;;;;;;5094753;28;20051;-71
2021/06/06 00:15:52;;;;;;;4.70;4.40;;;;;;;;;;5094521;28;20106;-71
2021/06/06 00:18:18;;;;;;;4.32;4.03;;;;;;;;;;5076591;28;20544;-71
2021/06/06 00:20:44;;;;;;;4.95;4.65;;;;;;;;;;5094573;28;20035;-71
2021/06/06 00:23:10;;;;;;;4.82;4.53;;;;;;;;;;5094866;28;20136;-71
2021/06/06 00:25:36;;;;;;;5.00;4.70;;;;;;;;;;5094703;28;20478;-71
2021/06/06 00:28:01;;;;;;;5.00;4.63;;;;;;;;;;5094684;28;20016;-75
2021/06/06 00:30:27;;;;;;;4.90;4.50;;;;;;;;;;5076633;28;20044;-75
2021/06/06 00:32:53;;;;;;;4.78;4.32;;;;;;;;;;5076367;28;20373;-75
2021/06/06 00:35:20;;;;;;;4.20;3.95;;;;;;;;;;5094573;28;20076;-75
2021/06/06 00:37:45;;;;;;;3.92;3.53;;;;;;;;;;5076263;28;20020;-75
2021/06/06 00:40:15;;;;;;;4.85;4.45;;;;;;;;;;5076173;28;20070;-71
2021/06/06 00:42:40;;;;;;;4.00;3.70;;;;;;;;;;5076169;28;20027;-71
2021/06/06 00:45:09;;;;;;;3.95;3.65;;;;;;;;;;5084187;28;20067;-72
2021/06/06 00:47:36;;;;;;;3.97;3.67;;;;;;;;;;5090521;28;20024;-71
2021/06/06 00:50:07;;;;;;;4.50;4.20;;;;;;;;;;5075843;28;20070;-71
2021/06/06 00:52:35;;;;;;;3.97;3.67;;;;;;;;;;5091671;28;20024;-74
2021/06/06 00:55:01;;;;;;;3.47;3.28;;;;;;;;;;5094005;28;20020;-72
2021/06/06 00:57:30;;;;;;;3.28;3.17;;;;;;;;;;5075723;28;20298;-72
2021/06/06 01:00:09;;;;;;;3.40;3.20;;;;;;;;;;5074043;28;20020;-74
2021/06/06 01:02:40;;;;;;;3.97;3.70;;;;;;;;;;5091689;28;20021;-74
2021/06/06 01:05:14;;;;;;;3.60;3.40;;;;;;;;;;5075543;28;20025;-71
2021/06/06 01:07:41;;;;;;;3.65;3.38;;;;;;;;;;5099062;28;20489;-71
2021/06/06 01:10:07;;;;;;;3.92;3.63;;;;;;;;;;5093633;28;20016;-71
2021/06/06 01:12:36;;;;;;;5.45;4.70;;;;;;;;;;5093668;28;20028;-72
2021/06/06 01:15:22;;;;;;;5.40;5.00;;;;;;;;;;5075634;28;20114;-71
2021/06/06 01:17:55;;;;;;;6.25;5.35;;;;;;;;;;5093512;28;20024;-71
2021/06/06 01:20:24;;;;;;;6.10;5.55;;;;;;;;;;5075395;28;20077;-71
2021/06/06 01:23:08;;;;;;;5.13;4.63;;;;;;;;;;5075030;28;20374;-71
2021/06/06 01:25:38;;;;;;;4.95;4.50;;;;;;;;;;5089423;28;20043;-72
2021/06/06 01:28:10;;;;;;;5.05;4.70;;;;;;;;;;5075286;28;20020;-71
2021/06/06 01:30:45;;;;;;;5.30;4.90;;;;;;;;;;5073238;28;20358;-71
2021/06/06 01:33:14;;;;;;;6.05;5.55;;;;;;;;;;5075203;28;20028;-73
2021/06/06 01:35:42;;;;;;;5.68;5.20;;;;;;;;;;5093412;28;20024;-71
2021/06/06 01:38:37;;;;;;;5.22;4.82;;;;;;;;;;5075195;28;20031;-71
2021/06/06 01:41:09;;;;;;;5.72;5.18;;;;;;;;;;5035998;28;20123;-71
2021/06/06 01:43:36;;;;;;;5.55;5.05;;;;;;;;;;5097512;28;20166;-74
2021/06/06 01:46:10;;;;;;;5.82;4.47;;;;;;;;;;5075439;28;20034;-74
2021/06/06 01:48:38;;;;;;;5.45;4.90;;;;;;;;;;5090854;28;20028;-74
2021/06/06 01:51:11;;;;;;;4.50;4.18;;;;;;;;;;5075097;28;20024;-74
2021/06/06 01:53:41;;;;;;;4.43;4.13;;;;;;;;;;5098626;28;20023;-75
2021/06/06 01:56:08;;;;;;;5.60;4.05;;;;;;;;;;5092972;28;20016;-75
2021/06/06 01:58:47;;;;;;;4.60;4.25;;;;;;;;;;5074017;28;20016;-74
2021/06/06 02:01:14;;;;;;;4.57;4.18;;;;;;;;;;5093077;28;20070;-74
2021/06/06 02:03:41;;;;;;;5.05;4.65;;;;;;;;;;5092875;28;20104;-74
2021/06/06 02:06:14;;;;;;;5.20;4.68;;;;;;;;;;5092757;28;20162;-74
2021/06/06 02:08:41;;;;;;;5.78;4.95;;;;;;;;;;5074260;28;20032;-75
2021/06/06 02:11:40;;;;;;;5.05;4.65;;;;;;;;;;5074781;28;20031;-74
2021/06/06 02:14:11;;;;;;;4.35;4.05;;;;;;;;;;5090199;28;20048;-75
2021/06/06 02:16:40;;;;;;;5.05;4.65;;;;;;;;;;5074707;28;20035;-75
2021/06/06 02:19:15;;;;;;;3.78;3.58;;;;;;;;;;5075866;28;20020;-75
2021/06/06 02:21:45;;;;;;;3.60;3.40;;;;;;;;;;5079038;28;20028;-74
2021/06/06 02:24:14;;;;;;;3.28;3.00;;;;;;;;;;5094044;28;20474;-71
2021/06/06 02:26:50;;;;;;;3.72;3.53;;;;;;;;;;5078699;28;20024;-71
2021/06/06 02:29:25;;;;;;;4.10;3.80;;;;;;;;;;5075954;28;20078;-71
2021/06/06 02:32:01;;;;;;;4.15;3.95;;;;;;;;;;5078751;28;20016;-71
2021/06/06 02:34:46;;;;;;;3.85;3.65;;;;;;;;;;5096642;28;20119;-70
2021/06/06 02:37:21;;;;;;;3.88;3.67;;;;;;;;;;5078219;28;20020;-71
2021/06/06 02:39:49;;;;;;;4.07;3.80;;;;;;;;;;5078537;28;20024;-75
2021/06/06 02:42:24;;;;;;;3.60;3.40;;;;;;;;;;5079251;28;20017;-74
2021/06/06 02:44:54;;;;;;;3.92;3.65;;;;;;;;;;5065587;28;20087;-75
2021/06/06 02:47:25;;;;;;;4.20;3.90;;;;;;;;;;5042778;28;20043;-74
2021/06/06 02:49:55;;;;;;;4.40;4.03;;;;;;;;;;5059118;28;20087;-75
2021/06/06 02:52:38;;;;;;;4.03;3.72;;;;;;;;;;5059197;28;20029;-75
2021/06/06 02:55:06;;;;;;;3.83;3.35;;;;;;;;;;5058793;28;20039;-75
2021/06/06 02:57:41;;;;;;;3.70;3.50;;;;;;;;;;5077042;28;20087;-75
2021/06/06 03:00:29;;;;;;;4.13;3.83;;;;;;;;;;5058744;28;20024;-74
2021/06/06 03:03:00;;;;;;;4.28;3.88;;;;;;;;;;5058557;28;20449;-74
2021/06/06 03:05:29;;;;;;;3.90;3.70;;;;;;;;;;5076527;28;20036;-75
2021/06/06 03:07:57;;;;;;;4.32;3.80;;;;;;;;;;5076549;28;20031;-74
2021/06/06 03:10:29;;;;;;;3.60;3.33;;;;;;;;;;5076338;28;20037;-75
2021/06/06 03:12:57;;;;;;;4.20;3.80;;;;;;;;;;5058456;28;20028;-75
2021/06/06 03:15:30;;;;;;;3.97;3.75;;;;;;;;;;5076374;28;20028;-74
2021/06/06 03:17:58;;;;;;;3.85;3.55;;;;;;;;;;5058271;28;20060;-74
2021/06/06 03:20:30;;;;;;;4.07;3.88;;;;;;;;;;5058181;28;20012;-75
2021/06/06 03:23:02;;;;;;;4.65;4.30;;;;;;;;;;5076037;28;20505;-71
2021/06/06 03:25:31;;;;;;;5.13;4.63;;;;;;;;;;5058138;28;20496;-71
2021/06/06 03:28:00;;;;;;;;;;;;;;;;;;5058715;28;20107;-71
2021/06/06 03:30:38;;;;;;;4.53;4.22;;;;;;;;;;5057781;28;19908;-71
2021/06/06 03:33:12;;;;;;;5.13;4.35;;;;;;;;;;5057950;28;20094;-74
2021/06/06 03:35:37;;;;;;;5.40;5.00;;;;;;;;;;5057908;28;20387;-74
2021/06/06 03:38:05;;;;;;;5.13;4.82;;;;;;;;;;5057785;28;20119;-71
2021/06/06 03:40:33;;;;;;;4.53;4.25;;;;;;;;;;5057775;28;20036;-71
2021/06/06 03:43:07;;;;;;;5.30;4.80;;;;;;;;;;5076059;28;20025;-71
2021/06/06 03:45:32;;;;;;;5.00;4.63;;;;;;;;;;5094823;28;20559;-71
2021/06/06 03:48:01;;;;;;;5.55;5.15;;;;;;;;;;5061550;28;20035;-71
2021/06/06 03:50:30;;;;;;;5.85;5.45;;;;;;;;;;5096351;28;20359;-71
2021/06/06 03:52:57;;;;;;;5.07;4.70;;;;;;;;;;5061056;28;20031;-71
2021/06/06 03:55:23;;;;;;;4.45;4.15;;;;;;;;;;5077689;28;20450;-71
2021/06/06 03:57:51;;;;;;;5.53;5.07;;;;;;;;;;5077679;28;20077;-71
2021/06/06 04:00:24;;;;;;;5.10;4.68;;;;;;;;;;5096008;28;20071;-71
2021/06/06 04:02:56;;;;;;;5.13;4.82;;;;;;;;;;5095721;28;20355;-71
2021/06/06 04:05:26;;;;;;;5.05;4.68;;;;;;;;;;5095574;28;20040;-71
2021/06/06 04:07:52;;;;;;;5.10;4.60;;;;;;;;;;5077778;28;20024;-71
2021/06/06 04:10:20;;;;;;;6.47;5.97;;;;;;;;;;5077376;28;20122;-71
2021/06/06 04:12:47;;;;;;;7.68;7.00;;;;;;;;;;5077503;28;20016;-71
2021/06/06 04:15:13;;;;;;;6.25;5.75;;;;;;;;;;5077336;28;20031;-71
2021/06/06 04:17:40;;;;;;;5.93;5.43;;;;;;;;;;5077385;28;20105;-71
2021/06/06 04:20:07;;;;;;;5.72;5.07;;;;;;;;;;5095186;28;20477;-71
2021/06/06 04:22:33;;;;;;;6.15;5.43;;;;;;;;;;5077327;28;20027;-71
2021/06/06 04:25:02;;;;;;;5.72;5.32;;;;;;;;;;5095171;28;20443;-71
2021/06/06 04:27:29;;;;;;;5.47;4.97;;;;;;;;;;5076861;28;20028;-71
2021/06/06 04:29:56;;;;;;;5.40;5.05;;;;;;;;;;5076752;28;20489;-71
2021/06/06 04:32:22;;;;;;;5.43;4.93;;;;;;;;;;5077127;28;20111;-71
2021/06/06 04:34:48;;;;;;;5.00;4.55;;;;;;;;;;5095111;28;20024;-71
2021/06/06 04:37:16;;;;;;;5.30;4.85;;;;;;;;;;5077013;28;20378;-72
2021/06/06 04:39:43;;;;;;;5.25;4.75;;;;;;;;;;5077119;28;20371;-71
2021/06/06 04:42:09;;;;;;;5.43;5.00;;;;;;;;;;5093076;28;20031;-74
2021/06/06 04:44:38;;;;;;;5.57;5.13;;;;;;;;;;5075310;28;20047;-74
2021/06/06 04:47:09;;;;;;;4.63;4.32;;;;;;;;;;5075950;28;20024;-71
2021/06/06 04:49:39;;;;;;;4.15;3.85;;;;;;;;;;5091412;28;20028;-71
2021/06/06 04:52:06;;;;;;;4.85;4.55;;;;;;;;;;5077618;28;20122;-71
2021/06/06 04:54:40;;;;;;;5.45;4.93;;;;;;;;;;5085290;28;20078;-71
2021/06/06 04:57:07;;;;;;;6.28;5.72;;;;;;;;;;5083984;28;20020;-71
2021/06/06 04:59:35;;;;;;;5.53;5.13;;;;;;;;;;5086555;28;20036;-71
2021/06/06 05:02:05;;;;;;;5.90;5.32;;;;;;;;;;5103522;28;20031;-71
2021/06/06 05:04:32;;;;;;;5.88;5.38;;;;;;;;;;5075834;28;20040;-71
2021/06/06 05:06:58;;;;;;;5.03;4.63;;;;;;;;;;5094224;28;20089;-71
2021/06/06 05:09:24;;;;;;;5.22;4.80;;;;;;;;;;5076412;28;20032;-70
2021/06/06 05:11:58;;;;;;;5.40;4.90;;;;;;;;;;5076107;28;20016;-70
2021/06/06 05:14:26;;;;;;;5.70;5.20;;;;;;;;;;5093934;28;20084;-72
2021/06/06 05:16:55;;;;;;;7.82;6.03;;;;;;;;;;5076053;28;20020;-72
2021/06/06 05:19:21;;;;;;;6.25;5.65;;;;;;;;;;5095796;28;20065;-72
2021/06/06 05:21:50;;;;;;;5.22;4.82;;;;;;;;;;5084286;28;20052;-72
2021/06/06 05:24:16;;;;;;;5.05;4.68;;;;;;;;;;5103881;28;20023;-72
2021/06/06 05:26:41;;;;;;;5.50;5.05;;;;;;;;;;5099068;28;20020;-72
2021/06/06 05:29:09;;;;;;;5.57;5.18;;;;;;;;;;5094847;28;20016;-72
2021/06/06 05:31:34;;;;;;;7.25;5.65;;;;;;;;;;5103345;28;20469;-72
2021/06/06 05:34:00;;;;;;;5.80;5.30;;;;;;;;;;5102682;28;20035;-72
2021/06/06 05:36:29;;;;;;;6.55;6.05;;;;;;;;;;5093446;28;20024;-71
2021/06/06 05:38:55;;;;;;;6.13;5.43;;;;;;;;;;5094190;28;20032;-71
2021/06/06 05:41:21;;;;;;;6.38;5.88;;;;;;;;;;5075583;28;20020;-72
2021/06/06 05:43:46;;;;;;;6.55;5.32;;;;;;;;;;5088965;28;20367;-72
2021/06/06 05:46:15;;;;;;;4.82;4.50;;;;;;;;;;5073832;28;20031;-72
2021/06/06 05:48:42;;;;;;;5.60;5.10;;;;;;;;;;5073290;28;20056;-72
2021/06/06 05:51:11;;;;;;;5.10;4.68;;;;;;;;;;5060610;28;20032;-72
2021/06/06 05:53:51;;;;;;;5.25;4.85;;;;;;;;;;5062674;28;20039;-72
2021/06/06 05:56:16;;;;;;;6.13;5.53;;;;;;;;;;5082461;28;20567;-72
2021/06/06 05:58:42;;;;;;;5.47;4.90;;;;;;;;;;5083285;28;20048;-71
2021/06/06 06:01:09;;;;;;;5.05;4.72;;;;;;;;;;5081083;28;20474;-72
2021/06/06 06:03:35;;;;;;;4.13;3.78;;;;;;;;;;5065058;28;20020;-72
2021/06/06 06:06:00;;;;;;;4.18;3.88;;;;;;;;;;5083018;28;20024;-72
2021/06/06 06:08:28;;;;;;;4.40;4.05;;;;;;;;;;5081544;28;20457;-72
2021/06/06 06:11:00;;;;;;;4.40;4.00;;;;;;;;;;5065303;28;20436;-72
2021/06/06 06:13:27;;;;;;;4.10;3.83;;;;;;;;;;5080902;28;20028;-72
2021/06/06 06:15:53;;;;;;;4.18;3.75;;;;;;;;;;5063459;28;20494;-72
2021/06/06 06:18:20;;;;;;;4.43;4.05;;;;;;;;;;5081235;28;20021;-72
2021/06/06 06:20:45;;;;;;;4.78;4.32;;;;;;;;;;5082979;28;20009;-72
2021/06/06 06:23:11;;;;;;;4.30;4.00;;;;;;;;;;5077627;28;20047;-72
2021/06/06 06:25:37;;;;;;;3.97;3.70;;;;;;;;;;5073008;28;20358;-72
2021/06/06 06:28:04;;;;;;;4.43;4.10;;;;;;;;;;5055096;28;20029;-72
2021/06/06 06:30:52;;;;;;;4.18;3.88;;;;;;;;;;5030211;28;20036;-72
2021/06/06 06:33:26;;;;;;;4.55;4.15;;;;;;;;;;5054843;28;20025;-72
2021/06/06 06:35:51;;;;;;;4.65;4.25;;;;;;;;;;5080094;28;20024;-72
2021/06/06 06:38:17;;;;;;;4.18;3.90;;;;;;;;;;5077882;28;20027;-72
2021/06/06 06:40:43;;;;;;;4.22;3.90;;;;;;;;;;5072236;28;20028;-72
2021/06/06 06:43:09;;;;;;;4.03;3.83;;;;;;;;;;5072523;28;20078;-72
2021/06/06 06:45:36;;;;;;;4.97;3.65;;;;;;;;;;5092390;28;20047;-72
2021/06/06 06:48:09;;;;;;;3.88;3.58;;;;;;;;;;5092959;28;20036;-72
2021/06/06 06:50:35;;;;;;;4.00;3.65;;;;;;;;;;5092448;28;20036;-72
2021/06/06 06:53:00;;;;;;;3.72;3.42;;;;;;;;;;5092126;28;20031;-72
2021/06/06 06:55:27;;;;;;;3.75;3.55;;;;;;;;;;5073916;28;20036;-72
2021/06/06 06:57:55;;;;;;;3.67;3.40;;;;;;;;;;5091913;28;20023;-71
2021/06/06 07:00:23;;;;;;;3.00;2.80;;;;;;;;;;5092907;28;20086;-72
2021/06/06 07:02:50;;;;;;;3.60;3.30;;;;;;;;;;5074917;28;20040;-71
2021/06/06 07:05:16;;;;;;;3.72;3.42;;;;;;;;;;5096101;28;20112;-72
2021/06/06 07:07:42;;;;;;;3.97;3.40;;;;;;;;;;5088805;28;20019;-71
2021/06/06 07:10:09;;;;;;;3.25;3.00;;;;;;;;;;5104937;28;20094;-71
2021/06/06 07:12:35;;;;;;;3.13;2.92;;;;;;;;;;5106556;28;20020;-71
2021/06/06 07:15:00;;;;;;;2.97;2.88;;;;;;;;;;5103481;28;20035;-71
2021/06/06 07:17:26;;;;;;;3.38;2.83;;;;;;;;;;5095709;28;20069;-72
2021/06/06 07:19:52;;;;;;;3.35;2.85;;;;;;;;;;5095688;28;20052;-72
2021/06/06 07:22:18;;;;;;;4.03;3.03;;;;;;;;;;5095652;28;20004;-71
2021/06/06 07:24:45;;;;;;;3.08;2.88;;;;;;;;;;5077813;28;20374;-72
2021/06/06 07:27:11;;;;;;;3.35;2.85;;;;;;;;;;5095523;28;20072;-71
2021/06/06 07:29:36;;;;;;;3.33;3.13;;;;;;;;;;5098432;28;20020;-71
2021/06/06 07:32:02;;;;;;;4.20;3.80;;;;;;;;;;5106871;28;20024;-72
2021/06/06 07:34:29;;;;;;;4.00;3.70;;;;;;;;;;5096031;28;20078;-72
2021/06/06 07:36:57;;;;;;;4.38;3.25;;;;;;;;;;5095796;28;20050;-68
2021/06/06 07:39:23;;;;;;;4.82;4.35;;;;;;;;;;5095947;28;20461;-71
2021/06/06 07:41:49;;;;;;;4.50;4.20;;;;;;;;;;5095339;28;20036;-70
2021/06/06 07:44:15;;;;;;;4.22;3.92;;;;;;;;;;5095004;28;20068;-71
2021/06/06 07:46:41;;;;;;;3.60;3.40;;;;;;;;;;5095581;28;20113;-71
2021/06/06 07:49:06;;;;;;;5.68;3.95;;;;;;;;;;5095709;28;20431;-71
2021/06/06 07:51:32;;;;;;;4.40;4.10;;;;;;;;;;5095621;28;20409;-71
2021/06/06 07:53:57;;;;;;;4.60;4.30;;;;;;;;;;5094924;28;20032;-71
2021/06/06 07:56:23;;;;;;;4.25;3.92;;;;;;;;;;5094707;28;20028;-71
2021/06/06 07:58:49;;;;;;;3.67;3.38;;;;;;;;;;5095410;28;20382;-71
2021/06/06 08:01:15;;;;;;;3.80;3.50;;;;;;;;;;5095484;28;20026;-71
2021/06/06 08:03:40;;;;;;;6.00;4.20;;;;;;;;;;5095560;28;20020;-71
2021/06/06 08:06:07;;;;;;;3.78;3.47;;;;;;;;;;5060530;28;20022;-71
2021/06/06 08:08:34;;;;;;;4.70;4.40;;;;;;;;;;5095173;28;20024;-71
2021/06/06 08:11:00;;;;;;;4.30;4.03;;;;;;;;;;5076959;28;20367;-71
2021/06/06 08:13:26;;;;;;;3.90;3.60;;;;;;;;;;5095062;28;20366;-70
2021/06/06 08:15:52;;;;;;;3.40;3.20;;;;;;;;;;5094996;28;20027;-71
2021/06/06 08:18:19;;;;;;;4.43;3.15;;;;;;;;;;5076043;28;20028;-71
2021/06/06 08:20:49;;;;;;;3.00;2.75;;;;;;;;;;5077025;28;20469;-71
2021/06/06 08:23:15;;;;;;;;;;;;;;;;;;5095443;28;20020;-71
2021/06/06 08:25:40;;;;;;;3.75;3.55;;;;;;;;;;5094938;28;20346;-71
2021/06/06 08:28:08;;;;;;;4.40;4.10;;;;;;;;;;5076654;28;20032;-71
2021/06/06 08:30:44;;;;;;;3.60;3.40;;;;;;;;;;5094730;28;20020;-71
2021/06/06 08:33:10;;;;;;;3.70;3.40;;;;;;;;;;5094783;28;20028;-71
2021/06/06 08:35:36;;;;;;;4.15;3.58;;;;;;;;;;5094387;28;20039;-71
2021/06/06 08:38:02;;;;;;;3.22;2.97;;;;;;;;;;5094601;28;20115;-71
2021/06/06 08:40:30;;;;;;;3.33;3.13;;;;;;;;;;5094570;28;20489;-71
2021/06/06 08:42:56;;;;;;;3.50;3.28;;;;;;;;;;5094384;28;20024;-71
2021/06/06 08:45:25;;;;;;;5.93;3.28;;;;;;;;;;5094337;28;20036;-71
2021/06/06 08:47:51;;;;;;;7.57;3.60;;;;;;;;;;5076366;28;20051;-71
2021/06/06 08:50:23;;;;;;;3.03;2.83;;;;;;;;;;5094310;28;20113;-71
2021/06/06 08:52:58;;;;;;;3.30;3.10;;;;;;;;;;5094459;28;20028;-70
2021/06/06 08:55:28;;;;;;;3.97;2.90;;;;;;;;;;5094272;28;20036;-71
2021/06/06 08:58:06;;;;;;;3.25;2.95;;;;;;;;;;5076144;28;20385;-70
2021/06/06 09:00:35;;;;;;;3.28;2.97;;;;;;;;;;5094310;28;20047;-70
2021/06/06 09:03:14;;;;;;;3.42;3.10;;;;;;;;;;5076200;28;20074;-70
2021/06/06 09:05:41;;;;;;;3.50;3.20;;;;;;;;;;5094189;28;20024;-70
2021/06/06 09:08:08;;;;;;;3.63;3.42;;;;;;;;;;5076208;28;20382;-71
2021/06/06 09:10:42;;;;;;;3.05;2.85;;;;;;;;;;5094089;28;20040;-71
2021/06/06 09:13:09;;;;;;;3.40;3.10;;;;;;;;;;5093961;28;20445;-70
2021/06/06 09:15:35;;;;;;;2.75;2.53;;;;;;;;;;5093813;28;20046;-71
2021/06/06 09:18:15;;;;;;;3.22;2.90;;;;;;;;;;5094015;28;20514;-70
2021/06/06 09:20:43;;;;;;;3.72;3.30;;;;;;;;;;5093979;28;20035;-70
2021/06/06 09:23:19;;;;;;;3.10;2.90;;;;;;;;;;5093777;28;20454;-71
2021/06/06 09:25:46;;;;;;;4.75;3.83;;;;;;;;;;5093756;28;20078;-71
2021/06/06 09:28:14;;;;;;;3.08;2.88;;;;;;;;;;5093229;28;20493;-71
2021/06/06 09:30:41;;;;;;;3.13;2.92;;;;;;;;;;5093716;28;20111;-70
2021/06/06 09:33:06;;;;;;;3.20;2.90;;;;;;;;;;5093702;28;20054;-70
2021/06/06 09:35:34;;;;;;;2.88;2.70;;;;;;;;;;5075347;28;20055;-70
2021/06/06 09:38:02;;;;;;;3.70;3.40;;;;;;;;;;5093726;28;20493;-70
2021/06/06 09:40:32;;;;;;;3.22;2.60;;;;;;;;;;5093592;28;20031;-70
2021/06/06 09:42:58;;;;;;;;;;;;;;;;;;5094062;28;20031;-70
2021/06/06 09:45:26;;;;;;;3.83;3.40;;;;;;;;;;5057615;28;20378;-70
2021/06/06 09:48:16;;;;;;;3.40;3.00;;;;;;;;;;5073253;28;20382;-70
2021/06/06 09:50:43;;;;;;;4.30;4.00;;;;;;;;;;5073239;28;20028;-70
2021/06/06 09:53:13;;;;;;;3.30;3.03;;;;;;;;;;5073166;28;20084;-70
2021/06/06 09:55:39;;;;;;;4.05;3.67;;;;;;;;;;5072983;28;20040;-70
2021/06/06 09:58:13;;;;;;;4.25;3.85;;;;;;;;;;5073146;28;20020;-70
2021/06/06 10:00:41;;;;;;;4.57;4.18;;;;;;;;;;5073128;28;20016;-70
2021/06/06 10:03:25;;;;;;;3.38;3.08;;;;;;;;;;5073187;28;20017;-70
2021/06/06 10:05:52;;;;;;;2.85;2.67;;;;;;;;;;5055181;28;20028;-70
2021/06/06 10:08:22;;;;;;;2.67;2.47;;;;;;;;;;5073083;28;20380;-70
2021/06/06 10:10:51;;;;;;;3.67;2.55;;;;;;;;;;5054913;28;20471;-70
2021/06/06 10:13:26;;;;;;;3.63;2.78;;;;;;;;;;5072959;28;20024;-70
2021/06/06 10:15:59;;;;;;;2.35;2.25;;;;;;;;;;5072872;28;20056;-70
2021/06/06 10:18:27;;;;;;;4.07;3.20;;;;;;;;;;5072917;28;20035;-71
2021/06/06 10:20:56;;;;;;;3.00;2.65;;;;;;;;;;5072908;28;20114;-71
2021/06/06 10:23:22;;;;;;;4.25;2.83;;;;;;;;;;5072609;28;20467;-70
2021/06/06 10:25:53;;;;;;;3.38;2.70;;;;;;;;;;5054748;28;20024;-71
2021/06/06 10:28:21;;;;;;;2.67;2.47;;;;;;;;;;5072891;28;20119;-70
2021/06/06 10:30:59;;;;;;;2.38;2.25;;;;;;;;;;5072860;28;20429;-70
2021/06/06 10:33:29;;;;;;;2.72;2.63;;;;;;;;;;5072577;28;20032;-70
2021/06/06 10:35:56;;;;;;;2.80;2.60;;;;;;;;;;5054666;28;20033;-71
2021/06/06 10:38:21;;;;;;;2.50;2.40;;;;;;;;;;5054779;28;20385;-70
2021/06/06 10:40:51;;;;;;;4.40;2.40;;;;;;;;;;5074337;28;20027;-71
2021/06/06 10:43:30;;;;;;;2.30;2.10;;;;;;;;;;5076586;28;20020;-70
2021/06/06 10:46:05;;;;;;;3.45;2.15;;;;;;;;;;5096880;28;20486;-70
2021/06/06 10:48:34;;;;;;;4.60;2.28;;;;;;;;;;5096882;28;20086;-70
2021/06/06 10:51:26;;;;;;;3.20;2.13;;;;;;;;;;5096918;28;20016;-70
2021/06/06 10:53:54;;;;;;;3.25;2.08;;;;;;;;;;5096550;28;20561;-70
2021/06/06 10:56:36;;;;;;;3.33;2.35;;;;;;;;;;5096462;28;20026;-71
2021/06/06 10:59:05;;;;;;;2.20;2.10;;;;;;;;;;5096494;28;20031;-70
2021/06/06 11:01:43;;;;;;;3.42;2.13;;;;;;;;;;5096601;28;20035;-71
2021/06/06 11:04:11;;;;;;;2.58;2.30;;;;;;;;;;5096588;28;20028;-70
2021/06/06 11:06:37;;;;;;;2.63;2.42;;;;;;;;;;5096436;28;20024;-71
2021/06/06 11:09:05;;;;;;;2.20;2.00;;;;;;;;;;5096302;28;20386;-71
2021/06/06 11:11:31;;;;;;;2.15;2.00;;;;;;;;;;5096418;28;20027;-70
2021/06/06 11:13:57;;;;;;;3.80;2.40;;;;;;;;;;5078056;28;20054;-70
2021/06/06 11:16:33;;;;;;;2.17;2.08;;;;;;;;;;5096201;28;20020;-70
2021/06/06 11:19:01;;;;;;;4.20;2.28;;;;;;;;;;5096179;28;20032;-70
2021/06/06 11:21:31;;;;;;;2.45;2.25;;;;;;;;;;5096118;28;20035;-71
2021/06/06 11:24:00;;;;;;;2.20;2.10;;;;;;;;;;5096179;28;20031;-71
2021/06/06 11:26:44;;;;;;;2.33;2.17;;;;;;;;;;5095987;28;20089;-71
2021/06/06 11:29:09;;;;;;;2.47;2.38;;;;;;;;;;5096068;28;20035;-70
2021/06/06 11:31:35;;;;;;;2.35;2.25;;;;;;;;;;5077753;28;20023;-70
2021/06/06 11:34:01;;;;;;;2.92;2.65;;;;;;;;;;5095866;28;20028;-70
2021/06/06 11:36:29;;;;;;;2.28;2.13;;;;;;;;;;5095822;28;20107;-70
2021/06/06 11:38:55;;;;;;;2.60;2.40;;;;;;;;;;5095886;28;20028;-71
2021/06/06 11:41:24;;;;;;;4.45;2.30;;;;;;;;;;5095759;28;20015;-70
2021/06/06 11:43:54;;;;;;;2.35;2.10;;;;;;;;;;5095269;28;20032;-70
2021/06/06 11:46:28;;;;;;;3.60;1.90;;;;;;;;;;5096027;28;20035;-70
2021/06/06 11:49:02;;;;;;;2.30;2.15;;;;;;;;;;5095734;28;20032;-71
2021/06/06 11:51:36;;;;;;;2.33;2.13;;;;;;;;;;5077674;28;20035;-71
2021/06/06 11:54:05;;;;;;;2.17;2.08;;;;;;;;;;5095601;28;20078;-71
2021/06/06 11:56:32;;;;;;;1.90;1.80;;;;;;;;;;5095463;28;20537;-70
2021/06/06 11:59:12;;;;;;;1.92;1.83;;;;;;;;;;5095451;28;20047;-70
2021/06/06 12:01:48;;;;;;;2.13;2.00;;;;;;;;;;5095474;28;20016;-71
2021/06/06 12:04:14;;;;;;;2.75;2.20;;;;;;;;;;5095394;28;20021;-70
2021/06/06 12:06:39;;;;;;;1.80;1.70;;;;;;;;;;5095211;28;20027;-70
2021/06/06 12:09:13;;;;;;;2.42;2.10;;;;;;;;;;5095377;28;20036;-70
2021/06/06 12:11:41;;;;;;;2.10;2.00;;;;;;;;;;5094950;28;20032;-71
2021/06/06 12:14:16;;;;;;;2.28;2.17;;;;;;;;;;5095332;28;20046;-71
2021/06/06 12:16:48;;;;;;;4.90;2.03;;;;;;;;;;5095074;28;20485;-71
2021/06/06 12:19:15;;;;;;;2.33;2.13;;;;;;;;;;5077077;28;20077;-70
2021/06/06 12:21:43;;;;;;;2.42;2.30;;;;;;;;;;5077027;28;20485;-70
2021/06/06 12:24:18;;;;;;;1.92;1.83;;;;;;;;;;5094931;28;20118;-70
2021/06/06 12:27:04;;;;;;;1.98;1.85;;;;;;;;;;5094901;28;20060;-70
2021/06/06 12:29:32;;;;;;;2.20;2.00;;;;;;;;;;5060127;28;20481;-71
2021/06/06 12:32:08;;;;;;;1.70;1.70;;;;;;;;;;5094872;28;20016;-70
2021/06/06 12:34:34;;;;;;;3.33;1.90;;;;;;;;;;5094855;28;20114;-70
2021/06/06 12:37:04;;;;;;;2.28;2.17;;;;;;;;;;5076547;28;20489;-70
2021/06/06 12:39:32;;;;;;;3.13;2.47;;;;;;;;;;5094643;28;20077;-70
2021/06/06 12:42:04;;;;;;;2.42;2.30;;;;;;;;;;5092269;28;20489;-70
2021/06/06 12:44:31;;;;;;;4.00;2.10;;;;;;;;;;5093961;28;20123;-71
2021/06/06 12:46:57;;;;;;;2.50;2.00;;;;;;;;;;5094384;28;20467;-70
2021/06/06 12:49:29;;;;;;;2.20;2.10;;;;;;;;;;5094604;28;20012;-71
2021/06/06 12:51:55;;;;;;;4.28;1.90;;;;;;;;;;5094443;28;20212;-70
2021/06/06 12:54:23;;;;;;;2.22;2.00;;;;;;;;;;5094231;28;20035;-70
2021/06/06 12:56:49;;;;;;;5.22;2.28;;;;;;;;;;5094082;28;20031;-71
2021/06/06 12:59:19;;;;;;;4.25;2.40;;;;;;;;;;5094354;28;20465;-71
2021/06/06 13:01:45;;;;;;;2.00;1.90;;;;;;;;;;5094248;28;20089;-71
2021/06/06 13:04:31;;;;;;;2.17;1.95;;;;;;;;;;5093589;28;20097;-70
2021/06/06 13:06:57;;;;;;;3.70;2.20;;;;;;;;;;5094354;28;20082;-70
2021/06/06 13:09:26;;;;;;;2.22;2.10;;;;;;;;;;5094087;28;20069;-70
2021/06/06 13:11:54;;;;;;;2.05;1.95;;;;;;;;;;5093990;28;20028;-71
2021/06/06 13:14:25;;;;;;;2.70;2.35;;;;;;;;;;5059287;28;20016;-70
2021/06/06 13:16:53;;;;;;;4.05;1.95;;;;;;;;;;5094001;28;20028;-70
2021/06/06 13:19:21;;;;;;;2.20;2.00;;;;;;;;;;5075694;28;20058;-70
2021/06/06 13:21:48;;;;;;;2.13;2.03;;;;;;;;;;5093897;28;20051;-71
2021/06/06 13:24:16;;;;;;;2.42;1.80;;;;;;;;;;5093817;28;20015;-70
2021/06/06 13:26:43;;;;;;;6.00;2.13;;;;;;;;;;5093886;28;20035;-70
2021/06/06 13:29:10;;;;;;;2.67;1.80;;;;;;;;;;5075467;28;20477;-71
2021/06/06 13:31:57;;;;;;;2.25;2.05;;;;;;;;;;5093658;28;20032;-70
2021/06/06 13:34:23;;;;;;;2.33;2.17;;;;;;;;;;5093975;28;20111;-71
2021/06/06 13:36:48;;;;;;;3.38;2.13;;;;;;;;;;5093638;28;20505;-70
2021/06/06 13:39:18;;;;;;;2.33;2.00;;;;;;;;;;5093630;28;20024;-70
2021/06/06 13:41:44;;;;;;;3.60;2.25;;;;;;;;;;5093536;28;20085;-70
2021/06/06 13:44:09;;;;;;;3.40;2.10;;;;;;;;;;5092927;28;20040;-70
2021/06/06 13:46:36;;;;;;;2.22;2.13;;;;;;;;;;5093771;28;20032;-70
2021/06/06 13:49:02;;;;;;;3.13;2.15;;;;;;;;;;5093491;28;20028;-70
2021/06/06 13:51:28;;;;;;;3.55;2.00;;;;;;;;;;5093391;28;20032;-70
2021/06/06 13:53:53;;;;;;;2.15;1.98;;;;;;;;;;5093407;28;20020;-70
2021/06/06 13:56:18;;;;;;;1.83;1.63;;;;;;;;;;5093219;28;20040;-70
2021/06/06 13:58:44;;;;;;;1.98;1.88;;;;;;;;;;5075251;28;20032;-70
2021/06/06 14:01:10;;;;;;;2.13;2.03;;;;;;;;;;5092955;28;20028;-70
2021/06/06 14:03:40;;;;;;;2.08;1.70;;;;;;;;;;5093214;28;20432;-70
2021/06/06 14:06:06;;;;;;;3.35;2.15;;;;;;;;;;5093281;28;20036;-70
2021/06/06 14:08:32;;;;;;;1.92;1.83;;;;;;;;;;5093194;28;20024;-70
2021/06/06 14:10:58;;;;;;;2.08;1.98;;;;;;;;;;5092951;28;20085;-70
2021/06/06 14:13:29;;;;;;;2.15;1.70;;;;;;;;;;5093124;28;20020;-70
2021/06/06 14:15:59;;;;;;;2.60;2.00;;;;;;;;;;5074181;28;20093;-70
2021/06/06 14:18:25;;;;;;;;;;;;;;;;;;5093588;28;20470;-70
2021/06/06 14:20:51;;;;;;;2.53;1.60;;;;;;;;;;5074979;28;19910;-70
2021/06/06 14:23:17;;;;;;;2.13;2.03;;;;;;;;;;5074914;28;20274;-70
2021/06/06 14:25:43;;;;;;;2.38;1.90;;;;;;;;;;5093031;28;20545;-70
2021/06/06 14:28:10;;;;;;;3.60;2.10;;;;;;;;;;5092880;28;20079;-70
2021/06/06 14:30:36;;;;;;;2.00;1.80;;;;;;;;;;5093023;28;20024;-70
2021/06/06 14:33:03;;;;;;;2.13;1.80;;;;;;;;;;5092924;28;20393;-70
2021/06/06 14:35:28;;;;;;;2.45;1.77;;;;;;;;;;5092999;28;20027;-70
2021/06/06 14:37:54;;;;;;;3.58;2.17;;;;;;;;;;5092949;28;20463;-70
2021/06/06 14:40:25;;;;;;;2.55;2.40;;;;;;;;;;5093006;28;20016;-70
2021/06/06 14:42:51;;;;;;;2.10;2.00;;;;;;;;;;5092898;28;20424;-70
2021/06/06 14:45:18;;;;;;;2.08;1.88;;;;;;;;;;5092726;28;20051;-70
2021/06/06 14:47:44;;;;;;;2.13;1.90;;;;;;;;;;5092960;28;20029;-70
2021/06/06 14:50:09;;;;;;;3.47;1.90;;;;;;;;;;5092815;28;20031;-70
2021/06/06 14:52:35;;;;;;;2.80;1.80;;;;;;;;;;5092762;28;20028;-70
2021/06/06 14:55:01;;;;;;;2.10;1.90;;;;;;;;;;5092336;28;20078;-70